Terminal Aerodrome Forecast
Issued by NWS Sterling, VA

Home | Current Version | Previous Version | Text Only | Print | Product List | Glossary On
Versions: 1 2 3 4 5 6 7 8 9 10 11 12 13 14 15 16 17 18 19 20 21 22 23 24 25
000
FTUS41 KLWX 140500 RRA
TAFBWI
TAF
KBWI 140541Z 1406/1512 22005KT P6SM SCT050 BKN090
     FM141600 22008KT P6SM VCTS BKN050CB
     FM142000 23008KT 3SM SHRA VCTS BKN050CB
     FM150000 24005KT 5SM SHRA BKN090
     FM150300 23004KT P6SM BKN050=

USA.gov is the U.S. government's official web portal to all federal, state and local government web resources and services.